Time;durP1;ratioP1;P1;durP2;ratioP2;P2;SDS_P1;SDS_P2;PMS_P1;PMS_P2;Temp;Humidity;BMP_temperature;BMP_pressure;BME280_temperature;BME280_humidity;BME280_pressure;Samples;Min_cycle;Max_cycle;Signal;HPM_P1;HPM_P2
2023/07/23 00:02:20;;;;;;;12.30;3.90;;;25.20;58.10;;;;;;4983260;28;20580;-74
2023/07/23 00:04:48;;;;;;;3.83;3.53;;;25.20;58.20;;;;;;4997921;28;20507;-77
2023/07/23 00:07:17;;;;;;;7.43;4.40;;;25.20;57.90;;;;;;5031104;28;20430;-77
2023/07/23 00:09:45;;;;;;;4.03;3.40;;;25.10;57.60;;;;;;5018739;28;20440;-78
2023/07/23 00:12:13;;;;;;;4.10;3.80;;;25.10;57.50;;;;;;5001311;28;20411;-78
2023/07/23 00:14:39;;;;;;;5.00;3.77;;;25.10;57.40;;;;;;5027342;28;20459;-78
2023/07/23 00:17:06;;;;;;;5.03;3.57;;;25.10;57.40;;;;;;5016597;28;20529;-76
2023/07/23 00:19:34;;;;;;;3.67;3.37;;;25.10;57.30;;;;;;4998574;28;20447;-77
2023/07/23 00:22:02;;;;;;;3.63;3.27;;;25.10;57.30;;;;;;4997829;28;20424;-74
2023/07/23 00:24:28;;;;;;;3.77;3.47;;;25.10;57.30;;;;;;5014207;28;20495;-81
2023/07/23 00:26:54;;;;;;;8.30;4.00;;;25.00;57.30;;;;;;5015122;28;20462;-78
2023/07/23 00:29:20;;;;;;;5.60;3.57;;;25.00;57.30;;;;;;5014309;28;20962;-78
2023/07/23 00:31:46;;;;;;;5.77;3.50;;;25.00;57.20;;;;;;5014381;28;20399;-78
2023/07/23 00:34:13;;;;;;;4.70;4.03;;;25.00;57.30;;;;;;5013466;28;20485;-78
2023/07/23 00:36:41;;;;;;;4.80;3.73;;;25.00;57.30;;;;;;4981950;28;20441;-78
2023/07/23 00:39:15;;;;;;;4.00;3.57;;;25.00;57.80;;;;;;5013787;28;20945;-78
2023/07/23 00:41:43;;;;;;;4.07;3.67;;;25.00;57.30;;;;;;5032333;28;20415;-78
2023/07/23 00:44:09;;;;;;;4.47;3.57;;;25.00;57.20;;;;;;4997556;28;20793;-77
2023/07/23 00:46:36;;;;;;;4.30;3.90;;;25.00;57.20;;;;;;4998015;28;20459;-77
2023/07/23 00:49:04;;;;;;;4.60;4.20;;;25.00;57.30;;;;;;5014475;28;20534;-78
2023/07/23 00:51:33;;;;;;;4.07;3.70;;;25.00;57.30;;;;;;4981838;28;20435;-79
2023/07/23 00:53:59;;;;;;;4.83;4.20;;;25.00;57.30;;;;;;5013735;28;20533;-77
2023/07/23 00:56:28;;;;;;;5.23;3.70;;;25.00;57.40;;;;;;5013700;28;20437;-78
2023/07/23 00:58:55;;;;;;;7.33;3.70;;;24.90;57.20;;;;;;5013841;28;20467;-78
2023/07/23 01:01:20;;;;;;;4.27;3.80;;;24.90;57.30;;;;;;5006661;28;20421;-78
2023/07/23 01:03:52;;;;;;;4.13;3.80;;;24.90;57.20;;;;;;4973317;28;20493;-77
2023/07/23 01:06:19;;;;;;;4.57;3.83;;;24.90;57.30;;;;;;5013899;28;20554;-76
2023/07/23 01:08:46;;;;;;;4.27;3.80;;;24.90;57.30;;;;;;4997650;28;20471;-78
2023/07/23 01:11:16;;;;;;;4.50;3.50;;;24.90;57.30;;;;;;4997838;28;20520;-78
2023/07/23 01:13:43;;;;;;;4.30;3.90;;;24.90;57.50;;;;;;5013300;28;20534;-79
2023/07/23 01:16:12;;;;;;;5.73;4.73;;;24.90;57.30;;;;;;4981224;28;20431;-79
2023/07/23 01:18:40;;;;;;;4.40;3.60;;;24.90;57.40;;;;;;4997234;28;20460;-79
2023/07/23 01:21:06;;;;;;;4.87;4.47;;;24.90;57.30;;;;;;4981128;28;20430;-78
2023/07/23 01:23:37;;;;;;;4.17;3.87;;;24.90;57.40;;;;;;5014005;28;20450;-78
2023/07/23 01:26:07;;;;;;;5.23;3.60;;;24.90;57.20;;;;;;4997060;28;20451;-78
2023/07/23 01:28:33;;;;;;;4.10;3.70;;;24.80;57.30;;;;;;4997360;28;20830;-78
2023/07/23 01:30:59;;;;;;;4.43;4.03;;;24.80;57.20;;;;;;4981155;28;20439;-78
2023/07/23 01:33:26;;;;;;;4.73;4.20;;;24.80;57.20;;;;;;5013132;28;21068;-78
2023/07/23 01:35:56;;;;;;;4.53;4.00;;;24.80;57.30;;;;;;5013196;28;20630;-78
2023/07/23 01:38:22;;;;;;;4.40;3.83;;;24.80;57.20;;;;;;5013498;28;20455;-78
2023/07/23 01:40:52;;;;;;;5.10;4.37;;;24.80;57.30;;;;;;5030920;28;20490;-77
2023/07/23 01:43:19;;;;;;;5.47;4.17;;;24.80;57.20;;;;;;5013148;28;20604;-78
2023/07/23 01:45:49;;;;;;;6.17;4.50;;;24.80;57.20;;;;;;4997148;28;20427;-77
2023/07/23 01:48:16;;;;;;;5.00;4.50;;;24.80;57.40;;;;;;4996654;28;20443;-78
2023/07/23 01:50:45;;;;;;;3.87;3.57;;;24.80;57.30;;;;;;4980198;28;20463;-78
2023/07/23 01:53:10;;;;;;;5.20;4.00;;;24.70;57.20;;;;;;5031076;28;20443;-77
2023/07/23 01:55:36;;;;;;;6.53;3.87;;;24.70;57.30;;;;;;5013207;28;20449;-77
2023/07/23 01:58:05;;;;;;;5.00;4.57;;;24.70;57.30;;;;;;4981147;28;20510;-77
2023/07/23 02:00:31;;;;;;;5.10;4.53;;;24.70;57.30;;;;;;4996488;28;20418;-79
2023/07/23 02:03:00;;;;;;;5.07;4.07;;;24.70;57.30;;;;;;5013078;28;20944;-79
2023/07/23 02:05:26;;;;;;;4.80;4.00;;;24.70;57.30;;;;;;4980855;28;20420;-79
2023/07/23 02:07:56;;;;;;;4.33;4.03;;;24.70;57.30;;;;;;4980498;28;20416;-79
2023/07/23 02:10:25;;;;;;;5.80;4.20;;;24.70;57.40;;;;;;4996654;28;20415;-79
2023/07/23 02:12:51;;;;;;;4.73;4.33;;;24.70;57.30;;;;;;5012752;28;20451;-79
2023/07/23 02:15:19;;;;;;;4.87;4.43;;;24.70;57.40;;;;;;4996395;28;20501;-79
2023/07/23 02:17:48;;;;;;;4.50;4.10;;;24.70;57.40;;;;;;5013106;28;20458;-78
2023/07/23 02:20:14;;;;;;;6.30;4.60;;;24.70;57.30;;;;;;4996722;28;20423;-78
2023/07/23 02:22:42;;;;;;;4.83;4.43;;;24.70;57.40;;;;;;4996542;28;20439;-78
2023/07/23 02:25:10;;;;;;;4.83;4.43;;;24.60;57.30;;;;;;4996843;28;20431;-78
2023/07/23 02:27:39;;;;;;;4.80;4.40;;;24.60;57.30;;;;;;5012833;28;20850;-77
2023/07/23 02:30:06;;;;;;;4.73;4.33;;;24.60;57.20;;;;;;4996442;28;21022;-78
2023/07/23 02:32:36;;;;;;;5.30;4.50;;;24.60;57.30;;;;;;4995649;28;20833;-77
2023/07/23 02:35:05;;;;;;;5.07;4.43;;;24.60;57.30;;;;;;4996687;28;20467;-77
2023/07/23 02:37:31;;;;;;;5.47;4.50;;;24.60;57.30;;;;;;4996248;28;20466;-79
2023/07/23 02:39:57;;;;;;;4.93;4.37;;;24.60;57.20;;;;;;5012591;28;20443;-78
2023/07/23 02:42:23;;;;;;;5.70;4.70;;;24.60;57.30;;;;;;5012551;28;20185;-78
2023/07/23 02:44:49;;;;;;;9.03;5.00;;;24.50;57.30;;;;;;5012381;28;20502;-77
2023/07/23 02:47:15;;;;;;;5.17;4.67;;;24.50;57.30;;;;;;5030221;28;20578;-78
2023/07/23 02:49:43;;;;;;;5.53;5.03;;;24.50;57.20;;;;;;5012458;28;20427;-78
2023/07/23 02:52:10;;;;;;;5.47;4.10;;;24.50;57.30;;;;;;5029905;28;20511;-78
2023/07/23 02:54:36;;;;;;;10.00;4.47;;;24.50;57.30;;;;;;4996118;28;20905;-78
2023/07/23 02:57:02;;;;;;;5.67;5.17;;;24.50;57.20;;;;;;5012465;28;20506;-79
2023/07/23 02:59:29;;;;;;;4.93;4.53;;;24.50;57.80;;;;;;4980199;28;20262;-78
2023/07/23 03:01:55;;;;;;;5.93;5.40;;;24.50;57.30;;;;;;5014432;28;20431;-78
2023/07/23 03:04:26;;;;;;;5.77;5.27;;;24.50;57.30;;;;;;5000449;28;20426;-77
2023/07/23 03:06:53;;;;;;;7.80;4.93;;;24.50;57.30;;;;;;5016416;28;20434;-78
2023/07/23 03:09:19;;;;;;;5.43;4.93;;;24.50;57.20;;;;;;4999541;28;20464;-79
2023/07/23 03:11:47;;;;;;;5.90;5.17;;;24.50;57.20;;;;;;4983516;28;20427;-77
2023/07/23 03:14:15;;;;;;;5.80;5.03;;;24.50;57.20;;;;;;5015949;28;20184;-77
2023/07/23 03:16:41;;;;;;;5.93;5.07;;;24.40;57.10;;;;;;5016131;28;20427;-77
2023/07/23 03:19:09;;;;;;;5.70;5.00;;;24.40;57.10;;;;;;5015828;28;20446;-77
2023/07/23 03:21:38;;;;;;;6.23;5.73;;;24.40;57.10;;;;;;4983490;28;20489;-78
2023/07/23 03:24:04;;;;;;;5.87;5.37;;;24.40;57.10;;;;;;4983140;28;20446;-78
2023/07/23 03:26:30;;;;;;;6.20;5.60;;;24.40;57.10;;;;;;5015861;28;20861;-77
2023/07/23 03:28:56;;;;;;;5.53;5.03;;;24.40;57.10;;;;;;5015309;28;20995;-78
2023/07/23 03:31:23;;;;;;;5.47;4.97;;;24.40;57.10;;;;;;5015564;28;20427;-78
2023/07/23 03:33:52;;;;;;;6.40;5.80;;;24.40;57.10;;;;;;4999623;28;20509;-79
2023/07/23 03:36:18;;;;;;;5.77;5.27;;;24.40;57.10;;;;;;5015534;28;20420;-77
2023/07/23 03:38:45;;;;;;;7.80;5.60;;;24.40;57.10;;;;;;4999039;28;20201;-78
2023/07/23 03:41:14;;;;;;;5.50;5.00;;;24.30;57.00;;;;;;5015394;28;20432;-78
2023/07/23 03:43:40;;;;;;;5.40;4.90;;;24.30;57.00;;;;;;4999078;28;20451;-78
2023/07/23 03:46:07;;;;;;;5.97;5.37;;;24.30;56.90;;;;;;5015233;28;20454;-78
2023/07/23 03:48:33;;;;;;;5.63;5.13;;;24.30;56.90;;;;;;5015324;28;20451;-78
2023/07/23 03:50:59;;;;;;;6.07;5.47;;;24.30;56.90;;;;;;4998566;28;20452;-78
2023/07/23 03:53:32;;;;;;;5.23;4.80;;;24.30;56.90;;;;;;4998132;28;20658;-77
2023/07/23 03:55:58;;;;;;;5.73;5.23;;;24.30;56.90;;;;;;4998097;28;20430;-77
2023/07/23 03:58:29;;;;;;;5.80;5.30;;;24.30;56.90;;;;;;5095427;22;20647;-85
2023/07/23 04:00:55;;;;;;;5.53;5.03;;;24.30;56.90;;;;;;5024445;28;20437;-87
2023/07/23 04:03:21;;;;;;;5.50;4.93;;;24.30;56.90;;;;;;5050755;28;20467;-86
2023/07/23 04:05:47;;;;;;;6.37;5.77;;;24.30;56.90;;;;;;5021197;28;20438;-85
2023/07/23 04:08:13;;;;;;;7.70;5.30;;;24.30;56.90;;;;;;5037938;28;20172;-88
2023/07/23 04:10:38;;;;;;;5.80;5.30;;;24.20;56.90;;;;;;5021221;28;20207;-87
2023/07/23 04:13:04;;;;;;;6.37;5.77;;;24.20;56.80;;;;;;5017151;28;20455;-84
2023/07/23 04:15:35;;;;;;;5.60;5.10;;;24.20;56.90;;;;;;4984788;28;20919;-86
2023/07/23 04:18:01;;;;;;;5.17;4.77;;;24.20;56.90;;;;;;5017647;28;20528;-85
2023/07/23 04:20:27;;;;;;;5.73;5.33;;;24.20;56.80;;;;;;5017335;28;20489;-87
2023/07/23 04:22:56;;;;;;;5.63;5.00;;;24.20;56.80;;;;;;5020274;28;20901;-86
2023/07/23 04:25:27;;;;;;;7.57;5.37;;;24.20;56.70;;;;;;5021373;28;20430;-86
2023/07/23 04:27:56;;;;;;;5.80;5.30;;;24.20;56.70;;;;;;5020636;28;20407;-86
2023/07/23 04:30:26;;;;;;;7.30;5.60;;;24.20;56.70;;;;;;5037375;28;20452;-87
2023/07/23 04:32:55;;;;;;;5.80;5.30;;;24.20;56.60;;;;;;5020383;28;20477;-86
2023/07/23 04:35:21;;;;;;;5.47;4.97;;;24.20;56.50;;;;;;5037054;28;20445;-87
2023/07/23 04:37:49;;;;;;;6.07;5.50;;;24.20;56.50;;;;;;5054585;28;20429;-86
2023/07/23 04:40:15;;;;;;;5.63;4.80;;;24.10;56.40;;;;;;5054683;28;20845;-85
2023/07/23 04:42:41;;;;;;;5.40;4.90;;;24.10;56.40;;;;;;5037316;28;20430;-86
2023/07/23 04:45:08;;;;;;;6.33;5.73;;;24.10;56.40;;;;;;5053706;28;20783;-87
2023/07/23 04:47:35;;;;;;;5.53;5.00;;;24.10;56.30;;;;;;5053347;28;20204;-86
2023/07/23 04:50:01;;;;;;;8.27;5.43;;;24.10;56.30;;;;;;5036732;28;20439;-86
2023/07/23 04:52:29;;;;;;;5.60;5.00;;;24.10;56.30;;;;;;5052957;28;20474;-83
2023/07/23 04:54:55;;;;;;;5.67;5.17;;;24.10;56.20;;;;;;5040339;28;20434;-86
2023/07/23 04:57:23;;;;;;;6.13;5.63;;;24.10;56.20;;;;;;5027871;28;20465;-86
2023/07/23 04:59:51;;;;;;;5.97;5.40;;;24.10;56.20;;;;;;5017112;28;20204;-86
2023/07/23 05:02:17;;;;;;;6.63;5.10;;;24.10;56.20;;;;;;5015262;28;20441;-85
2023/07/23 05:04:43;;;;;;;5.27;4.87;;;24.10;56.20;;;;;;5052829;28;20445;-85
2023/07/23 05:07:08;;;;;;;5.93;5.40;;;24.10;56.20;;;;;;5003555;28;20438;-86
2023/07/23 05:09:34;;;;;;;5.77;5.17;;;24.10;56.20;;;;;;5036185;28;20207;-86
2023/07/23 05:12:00;;;;;;;6.77;5.00;;;24.00;56.10;;;;;;5053755;28;20525;-86
2023/07/23 05:14:31;;;;;;;4.50;4.10;;;24.00;56.10;;;;;;5030680;28;20639;-85
2023/07/23 05:16:59;;;;;;;5.70;5.20;;;24.00;56.10;;;;;;5040071;28;20418;-85
2023/07/23 05:19:25;;;;;;;5.00;4.60;;;24.00;56.10;;;;;;5005808;28;20504;-85
2023/07/23 05:21:54;;;;;;;5.20;4.70;;;24.00;56.10;;;;;;5027829;28;20458;-85
2023/07/23 05:24:22;;;;;;;4.97;4.47;;;24.00;56.10;;;;;;5035546;28;20187;-86
2023/07/23 05:26:48;;;;;;;5.43;4.93;;;24.00;56.00;;;;;;5017312;28;20463;-86
2023/07/23 05:29:14;;;;;;;4.73;4.33;;;24.00;56.00;;;;;;5003524;28;20431;-86
2023/07/23 05:31:42;;;;;;;5.20;4.70;;;24.00;56.00;;;;;;5036090;28;20204;-86
2023/07/23 05:34:11;;;;;;;5.97;4.77;;;24.00;56.00;;;;;;5047910;28;20468;-86
2023/07/23 05:36:37;;;;;;;6.13;4.33;;;24.00;55.90;;;;;;5053312;28;20488;-87
2023/07/23 05:39:03;;;;;;;7.03;4.60;;;24.00;55.90;;;;;;5053431;28;20383;-86
2023/07/23 05:41:29;;;;;;;6.93;4.50;;;23.90;55.90;;;;;;5003089;28;20423;-85
2023/07/23 05:43:57;;;;;;;5.30;4.80;;;23.90;55.90;;;;;;5029219;28;20465;-86
2023/07/23 05:46:23;;;;;;;5.10;4.60;;;23.90;55.90;;;;;;5019442;28;20690;-86
2023/07/23 05:48:49;;;;;;;4.70;4.30;;;23.90;55.90;;;;;;5031415;28;20442;-84
2023/07/23 05:51:17;;;;;;;5.40;4.90;;;23.90;55.90;;;;;;5019403;28;20191;-86
2023/07/23 05:53:43;;;;;;;4.30;3.90;;;23.90;55.80;;;;;;5035590;28;20200;-86
2023/07/23 05:56:11;;;;;;;4.90;4.50;;;23.90;55.80;;;;;;5019211;28;20504;-85
2023/07/23 05:58:37;;;;;;;5.03;4.30;;;23.90;55.90;;;;;;5019268;28;20592;-85
2023/07/23 06:01:07;;;;;;;4.87;4.57;;;23.90;55.90;;;;;;5052449;28;20435;-86
2023/07/23 06:03:33;;;;;;;4.30;3.93;;;23.90;55.90;;;;;;5038942;28;20550;-85
2023/07/23 06:05:59;;;;;;;8.43;4.03;;;23.90;55.90;;;;;;5035429;28;20482;-86
2023/07/23 06:08:25;;;;;;;4.90;4.40;;;23.90;55.80;;;;;;5035545;28;20513;-86
2023/07/23 06:10:51;;;;;;;3.90;3.50;;;23.90;55.80;;;;;;5052545;28;20186;-86
2023/07/23 06:13:19;;;;;;;4.60;3.83;;;23.90;55.80;;;;;;5038832;28;20200;-86
2023/07/23 06:15:45;;;;;;;6.93;4.13;;;23.90;55.80;;;;;;5051863;28;20451;-87
2023/07/23 06:18:11;;;;;;;4.97;4.50;;;23.90;55.80;;;;;;5033390;28;20454;-86
2023/07/23 06:20:37;;;;;;;4.00;3.70;;;23.90;55.80;;;;;;5051733;28;20262;-85
2023/07/23 06:23:07;;;;;;;4.40;4.00;;;23.90;55.90;;;;;;5020007;28;20525;-85
2023/07/23 06:25:35;;;;;;;4.10;3.70;;;23.90;55.80;;;;;;5018255;28;20529;-85
2023/07/23 06:28:06;;;;;;;4.10;3.70;;;23.90;55.80;;;;;;5019900;28;20470;-85
2023/07/23 06:30:35;;;;;;;4.17;3.87;;;23.90;55.80;;;;;;5034219;28;20474;-85
2023/07/23 06:33:01;;;;;;;4.03;3.73;;;23.80;55.70;;;;;;5036845;28;20461;-85
2023/07/23 06:35:27;;;;;;;4.23;3.83;;;23.80;55.80;;;;;;5068869;28;20455;-85
2023/07/23 06:37:53;;;;;;;3.93;3.63;;;23.80;55.80;;;;;;5039605;28;20176;-85
2023/07/23 06:40:18;;;;;;;4.63;3.83;;;23.80;55.80;;;;;;5057280;28;20450;-87
2023/07/23 06:42:44;;;;;;;4.00;3.70;;;23.80;55.80;;;;;;5057927;28;20214;-87
2023/07/23 06:45:11;;;;;;;3.70;3.40;;;23.80;55.80;;;;;;5045801;28;20793;-86
2023/07/23 06:47:41;;;;;;;6.00;4.30;;;23.80;56.10;;;;;;5028365;28;20217;-84
2023/07/23 06:50:07;;;;;;;5.60;4.50;;;23.80;55.70;;;;;;5046419;28;20707;-85
2023/07/23 06:52:33;;;;;;;4.17;3.77;;;23.80;55.70;;;;;;5041362;28;20474;-85
2023/07/23 06:55:06;;;;;;;4.43;4.03;;;23.80;55.70;;;;;;5039845;28;20477;-86
2023/07/23 06:57:32;;;;;;;9.57;4.33;;;23.80;55.70;;;;;;5035415;28;20547;-84
2023/07/23 07:00:00;;;;;;;4.37;3.97;;;23.80;55.70;;;;;;5019193;28;20489;-86
2023/07/23 07:02:28;;;;;;;3.90;3.60;;;23.80;55.70;;;;;;5021073;28;20208;-88
2023/07/23 07:04:59;;;;;;;4.50;4.10;;;23.80;55.70;;;;;;5040369;28;20418;-85
2023/07/23 07:07:25;;;;;;;4.00;3.70;;;23.80;55.70;;;;;;5054499;28;20498;-85
2023/07/23 07:10:03;;;;;;;4.40;4.00;;;23.80;55.80;;;;;;5053786;28;20464;-86
2023/07/23 07:12:57;;;;;;;4.67;4.13;;;23.80;55.80;;;;;;5002162;28;20558;-86
2023/07/23 07:15:23;;;;;;;4.47;3.80;;;23.80;55.80;;;;;;5001381;28;20475;-85
2023/07/23 07:17:49;;;;;;;4.00;3.70;;;23.80;55.90;;;;;;5035313;28;20435;-86
2023/07/23 07:20:21;;;;;;;4.23;3.83;;;23.80;55.80;;;;;;5035477;28;20172;-85
2023/07/23 07:22:49;;;;;;;4.50;4.10;;;23.80;56.00;;;;;;5019568;28;20203;-85
2023/07/23 07:25:17;;;;;;;4.50;4.10;;;23.80;56.00;;;;;;5037409;28;20477;-87
2023/07/23 07:28:06;;;;;;;4.10;3.43;;;23.80;56.10;;;;;;5054528;28;20833;-85
2023/07/23 07:30:44;;;;;;;5.23;4.40;;;23.70;56.20;;;;;;5037799;28;20419;-86
2023/07/23 07:33:17;;;;;;;4.77;4.33;;;23.70;56.20;;;;;;5004528;28;20986;-85
2023/07/23 07:35:51;;;;;;;3.70;3.40;;;23.70;56.30;;;;;;5020755;28;20423;-85
2023/07/23 07:38:45;;;;;;;7.03;4.10;;;23.70;56.40;;;;;;5020743;28;20757;-86
2023/07/23 07:41:34;;;;;;;4.90;3.70;;;23.70;56.50;;;;;;5054559;28;20461;-84
2023/07/23 07:44:00;;;;;;;4.00;3.70;;;23.70;56.50;;;;;;5053745;28;20399;-84
2023/07/23 07:46:28;;;;;;;5.40;3.73;;;23.70;56.50;;;;;;5037306;28;20733;-84
2023/07/23 07:48:56;;;;;;;4.30;4.00;;;23.70;56.50;;;;;;5055706;28;20713;-85
2023/07/23 07:51:21;;;;;;;9.53;3.80;;;23.70;56.50;;;;;;5048307;28;21253;-87
2023/07/23 07:54:21;;;;;;;4.17;3.63;;;23.70;56.50;;;;;;5054537;28;20557;-86
2023/07/23 07:57:15;;;;;;;4.60;4.20;;;23.70;56.50;;;;;;5041555;28;20439;-84
2023/07/23 07:59:41;;;;;;;5.33;4.10;;;23.70;56.60;;;;;;5040045;28;20426;-85
2023/07/23 08:02:12;;;;;;;4.10;3.67;;;23.70;56.70;;;;;;5064427;28;20435;-86
2023/07/23 08:04:38;;;;;;;6.00;4.00;;;23.70;56.70;;;;;;5037577;28;20450;-85
2023/07/23 08:07:08;;;;;;;4.60;4.20;;;23.70;56.60;;;;;;5020312;28;20430;-85
2023/07/23 08:09:39;;;;;;;5.97;3.47;;;23.70;56.60;;;;;;5053491;28;20454;-82
2023/07/23 08:12:12;;;;;;;4.07;3.73;;;23.70;56.70;;;;;;5036208;28;20523;-85
2023/07/23 08:14:41;;;;;;;5.67;3.77;;;23.70;57.30;;;;;;5015926;28;20534;-84
2023/07/23 08:17:08;;;;;;;6.10;3.93;;;23.70;56.80;;;;;;5035562;28;20486;-85
2023/07/23 08:19:39;;;;;;;6.70;3.97;;;23.60;56.80;;;;;;5053818;28;20506;-86
2023/07/23 08:22:08;;;;;;;6.20;3.87;;;23.60;56.80;;;;;;5036144;28;20438;-84
2023/07/23 08:24:36;;;;;;;3.73;3.43;;;23.60;57.00;;;;;;5003630;28;20959;-84
2023/07/23 08:27:33;;;;;;;5.43;4.27;;;23.60;57.70;;;;;;5019783;28;20451;-86
2023/07/23 08:29:59;;;;;;;4.60;4.10;;;23.60;57.40;;;;;;5036084;28;20429;-85
2023/07/23 08:32:30;;;;;;;4.03;3.60;;;23.60;57.70;;;;;;5053181;28;20438;-85
2023/07/23 08:35:13;;;;;;;3.80;3.50;;;23.60;58.10;;;;;;5038410;28;20430;-84
2023/07/23 08:38:05;;;;;;;5.30;3.27;;;23.60;58.30;;;;;;5036584;28;20494;-84
2023/07/23 08:40:42;;;;;;;3.97;3.60;;;23.60;58.90;;;;;;5053165;28;20949;-85
2023/07/23 08:43:12;;;;;;;5.27;4.10;;;23.50;58.90;;;;;;5052992;28;20764;-83
2023/07/23 08:45:52;;;;;;;5.03;3.83;;;23.60;59.40;;;;;;5053051;28;20430;-84
2023/07/23 08:48:47;;;;;;;4.07;3.77;;;23.50;59.50;;;;;;5003622;28;20411;-83
2023/07/23 08:51:16;;;;;;;4.13;3.10;;;23.50;59.70;;;;;;5052907;28;20438;-83
2023/07/23 08:53:53;;;;;;;5.23;3.67;;;23.50;59.90;;;;;;5051847;28;20999;-83
2023/07/23 08:56:46;;;;;;;3.83;3.53;;;23.50;60.00;;;;;;5032136;28;20549;-85
2023/07/23 08:59:29;;;;;;;4.00;3.70;;;23.50;60.30;;;;;;4964805;28;20550;-84
2023/07/23 09:02:16;;;;;;;3.60;3.33;;;23.50;60.30;;;;;;4991231;28;20580;-84
2023/07/23 09:04:41;;;;;;;3.80;3.40;;;23.50;60.50;;;;;;4976373;28;20457;-84
2023/07/23 09:07:15;;;;;;;3.63;3.33;;;23.50;60.60;;;;;;4968111;28;20431;-84
2023/07/23 09:09:49;;;;;;;4.23;3.93;;;23.50;60.90;;;;;;4952255;29;20176;-86
2023/07/23 09:12:18;;;;;;;4.40;4.00;;;23.50;60.80;;;;;;4975141;28;20504;-83
2023/07/23 09:14:53;;;;;;;4.43;4.00;;;23.50;61.10;;;;;;4975484;28;20416;-83
2023/07/23 09:17:22;;;;;;;3.90;3.60;;;23.50;61.20;;;;;;4965728;28;20521;-85
2023/07/23 09:19:50;;;;;;;4.23;3.83;;;23.50;61.20;;;;;;4972277;28;20497;-85
2023/07/23 09:22:17;;;;;;;3.63;3.30;;;23.50;61.50;;;;;;4972528;28;20446;-83
2023/07/23 09:24:43;;;;;;;4.03;3.50;;;23.50;61.60;;;;;;4972791;28;20454;-82
2023/07/23 09:27:12;;;;;;;4.00;3.70;;;23.50;61.70;;;;;;4956948;28;20497;-84
2023/07/23 09:29:43;;;;;;;4.17;3.77;;;23.50;61.90;;;;;;4972287;28;20265;-83
2023/07/23 09:32:25;;;;;;;4.20;3.80;;;23.50;62.10;;;;;;4971561;28;20410;-83
2023/07/23 09:34:55;;;;;;;5.37;3.77;;;23.50;62.10;;;;;;4971435;28;20540;-83
2023/07/23 09:37:26;;;;;;;5.23;3.60;;;23.50;62.40;;;;;;4975250;28;20429;-83
2023/07/23 09:39:56;;;;;;;3.83;3.30;;;23.50;62.40;;;;;;4972985;28;20975;-84
2023/07/23 09:42:25;;;;;;;3.97;3.67;;;23.50;62.80;;;;;;5048684;28;20418;-82
2023/07/23 09:44:59;;;;;;;4.10;3.70;;;23.50;62.90;;;;;;5035530;28;20402;-84
2023/07/23 09:47:30;;;;;;;5.00;3.27;;;23.50;63.00;;;;;;5035176;28;20406;-84
2023/07/23 09:49:58;;;;;;;3.60;3.30;;;23.50;63.10;;;;;;5018957;28;20421;-84
2023/07/23 09:52:34;;;;;;;3.47;3.17;;;23.50;63.30;;;;;;5018444;28;20458;-85
2023/07/23 09:55:02;;;;;;;4.07;3.47;;;23.50;63.10;;;;;;5018895;28;20426;-83
2023/07/23 09:57:31;;;;;;;3.80;3.50;;;23.50;63.50;;;;;;5052138;28;20470;-85
2023/07/23 09:59:59;;;;;;;3.00;2.80;;;23.50;63.60;;;;;;5052505;28;20893;-83
2023/07/23 10:02:31;;;;;;;4.47;4.07;;;23.50;63.60;;;;;;5036615;28;20764;-83
2023/07/23 10:05:03;;;;;;;4.47;4.07;;;23.50;63.60;;;;;;5018564;28;20438;-85
2023/07/23 10:07:30;;;;;;;5.60;3.70;;;23.50;64.00;;;;;;5018063;28;20889;-84
2023/07/23 10:10:01;;;;;;;4.03;3.43;;;23.50;63.90;;;;;;5023665;28;20422;-85
2023/07/23 10:12:29;;;;;;;3.40;3.10;;;23.50;64.00;;;;;;5051666;28;20409;-84
2023/07/23 10:14:55;;;;;;;3.53;3.27;;;23.50;64.20;;;;;;5052077;28;20505;-84
2023/07/23 10:17:24;;;;;;;5.40;3.53;;;23.50;64.10;;;;;;5051014;28;20184;-84
2023/07/23 10:19:54;;;;;;;3.90;3.60;;;23.40;64.00;;;;;;5032481;28;20446;-84
2023/07/23 10:22:23;;;;;;;3.30;2.97;;;23.50;64.40;;;;;;5015195;28;20607;-82
2023/07/23 10:24:52;;;;;;;3.27;2.97;;;23.50;64.40;;;;;;5045687;28;20790;-83
2023/07/23 10:27:23;;;;;;;3.80;3.20;;;23.40;64.30;;;;;;5052168;28;20421;-83
2023/07/23 10:30:14;;;;;;;3.77;3.40;;;23.50;64.70;;;;;;5034385;28;20422;-85
2023/07/23 10:32:42;;;;;;;3.73;3.33;;;23.40;64.60;;;;;;5051965;28;20535;-83
2023/07/23 10:35:11;;;;;;;3.13;2.93;;;23.40;64.60;;;;;;5034754;28;20517;-83
2023/07/23 10:37:38;;;;;;;3.07;2.77;;;23.40;64.70;;;;;;5032882;28;20936;-83
2023/07/23 10:40:04;;;;;;;3.47;3.17;;;23.40;64.60;;;;;;5052481;28;20427;-84
2023/07/23 10:42:41;;;;;;;3.83;3.20;;;23.40;64.50;;;;;;5018408;28;20446;-83
2023/07/23 10:45:24;;;;;;;3.67;3.07;;;23.40;64.70;;;;;;5036165;28;20429;-83
2023/07/23 10:47:57;;;;;;;4.00;2.90;;;23.40;64.60;;;;;;5052711;28;20440;-84
2023/07/23 10:50:25;;;;;;;2.60;2.40;;;23.40;64.80;;;;;;5034923;28;20461;-83
2023/07/23 10:53:02;;;;;;;3.77;3.03;;;23.40;64.50;;;;;;5002781;28;20463;-83
2023/07/23 10:55:39;;;;;;;2.70;2.50;;;23.40;65.00;;;;;;5035558;28;20453;-86
2023/07/23 10:58:13;;;;;;;2.97;2.60;;;23.40;65.00;;;;;;5039228;28;20485;-85
2023/07/23 11:00:47;;;;;;;2.87;2.67;;;23.40;65.30;;;;;;5029176;28;20458;-85
2023/07/23 11:03:21;;;;;;;2.80;2.60;;;23.40;65.70;;;;;;5017420;28;20442;-85
2023/07/23 11:05:47;;;;;;;3.20;3.00;;;23.40;65.90;;;;;;5013268;28;20441;-86
2023/07/23 11:09:10;;;;;;;3.00;2.80;;;23.40;66.00;;;;;;5048287;28;20411;-84
2023/07/23 11:11:42;;;;;;;3.13;2.80;;;23.40;66.10;;;;;;5020116;28;20428;-84
2023/07/23 11:14:25;;;;;;;4.33;2.87;;;23.40;66.10;;;;;;5034327;28;20450;-83
2023/07/23 11:16:56;;;;;;;2.90;2.70;;;23.30;66.30;;;;;;5034012;28;20426;-84
2023/07/23 11:19:24;;;;;;;2.77;2.57;;;23.40;66.50;;;;;;5034185;28;20470;-85
2023/07/23 11:21:54;;;;;;;2.97;2.70;;;23.30;66.40;;;;;;5051489;28;20411;-85
2023/07/23 11:24:20;;;;;;;2.87;2.67;;;23.30;66.20;;;;;;5054725;28;20427;-84
2023/07/23 11:26:47;;;;;;;2.73;2.53;;;23.40;66.30;;;;;;5068318;22;20532;-72
2023/07/23 11:29:14;;;;;;;3.20;2.73;;;23.30;66.20;;;;;;5073839;28;20845;-72
2023/07/23 11:31:44;;;;;;;2.57;2.37;;;23.30;66.20;;;;;;5091407;28;20409;-71
2023/07/23 11:34:12;;;;;;;2.70;2.30;;;23.30;66.10;;;;;;5091180;28;20481;-71
2023/07/23 11:36:39;;;;;;;2.50;2.30;;;23.30;66.10;;;;;;5072742;28;20413;-72
2023/07/23 11:39:06;;;;;;;3.00;2.70;;;23.30;66.20;;;;;;5047248;28;20446;-71
2023/07/23 11:41:41;;;;;;;2.73;2.53;;;23.30;66.20;;;;;;5053492;28;20496;-71
2023/07/23 11:44:08;;;;;;;2.93;2.50;;;23.30;66.10;;;;;;5076991;28;20435;-71
2023/07/23 11:46:38;;;;;;;2.67;2.47;;;23.30;66.20;;;;;;5053646;28;20420;-71
2023/07/23 11:49:07;;;;;;;2.50;2.30;;;23.30;66.00;;;;;;5071808;28;20938;-71
2023/07/23 11:51:33;;;;;;;2.87;2.67;;;23.30;66.30;;;;;;5044623;28;20463;-71
2023/07/23 11:54:19;;;;;;;2.70;2.50;;;23.30;66.40;;;;;;5061315;28;20504;-71
2023/07/23 11:56:48;;;;;;;2.83;2.63;;;23.30;66.40;;;;;;5071121;28;20994;-71
2023/07/23 11:59:19;;;;;;;2.60;2.40;;;23.30;66.60;;;;;;5055132;28;20451;-72
2023/07/23 12:01:47;;;;;;;2.47;2.27;;;23.30;67.30;;;;;;5070296;28;20432;-72
2023/07/23 12:04:13;;;;;;;3.57;2.33;;;23.30;67.30;;;;;;5086349;28;20877;-71
2023/07/23 12:06:40;;;;;;;3.23;2.70;;;23.30;67.30;;;;;;5052749;28;20490;-71
2023/07/23 12:09:14;;;;;;;2.50;2.30;;;23.30;67.30;;;;;;5089260;28;20813;-71
2023/07/23 12:11:43;;;;;;;2.40;2.20;;;23.30;67.60;;;;;;5086767;28;20915;-71
2023/07/23 12:14:13;;;;;;;2.80;2.60;;;23.30;67.90;;;;;;5078933;28;20549;-74
2023/07/23 12:16:52;;;;;;;2.80;2.60;;;23.30;68.00;;;;;;5068265;28;20448;-73
2023/07/23 12:19:19;;;;;;;2.70;2.50;;;23.30;68.50;;;;;;5080470;28;20449;-69
2023/07/23 12:21:47;;;;;;;2.67;2.57;;;23.30;68.50;;;;;;5056869;28;20425;-72
2023/07/23 12:24:26;;;;;;;5.00;2.70;;;23.30;68.80;;;;;;5172472;22;20610;-76
2023/07/23 12:26:56;;;;;;;2.57;2.37;;;23.30;68.80;;;;;;5026483;28;20488;-74
2023/07/23 12:29:26;;;;;;;2.43;2.30;;;23.30;68.60;;;;;;5011053;28;20904;-72
2023/07/23 12:32:15;;;;;;;2.60;2.40;;;23.30;68.80;;;;;;5011327;28;20440;-72
2023/07/23 12:34:43;;;;;;;2.70;2.50;;;23.30;69.00;;;;;;5010786;28;20487;-72
2023/07/23 12:37:09;;;;;;;2.70;2.50;;;23.30;68.90;;;;;;5011412;28;20428;-72
2023/07/23 12:39:38;;;;;;;2.60;2.40;;;23.30;68.80;;;;;;5011359;28;20436;-72
2023/07/23 12:42:04;;;;;;;2.93;2.73;;;23.30;68.90;;;;;;5011626;28;20511;-72
2023/07/23 12:44:30;;;;;;;4.30;2.40;;;23.30;70.00;;;;;;4995832;28;20435;-72
2023/07/23 12:46:59;;;;;;;2.63;2.43;;;23.30;69.10;;;;;;5029552;28;20539;-72
2023/07/23 12:49:24;;;;;;;2.80;2.37;;;23.30;69.30;;;;;;5029414;28;20470;-72
2023/07/23 12:51:51;;;;;;;2.90;2.60;;;23.30;69.30;;;;;;5011842;28;20424;-72
2023/07/23 12:54:19;;;;;;;2.70;2.50;;;23.30;69.20;;;;;;5011606;28;20989;-72
2023/07/23 12:56:45;;;;;;;3.00;2.70;;;23.30;69.30;;;;;;5011173;28;20465;-72
2023/07/23 12:59:12;;;;;;;3.30;3.00;;;23.30;69.10;;;;;;5011266;28;20467;-72
2023/07/23 13:01:41;;;;;;;2.80;2.60;;;23.30;69.00;;;;;;5011726;28;20468;-72